sensor_id;sensor_type;location;lat;lon;timestamp;pressure;altitude;pressure_sealevel;temperature;humidity
15817;BME280;8009;50.070;8.232;2023-05-07T00:01:10;99940.66;;;17.24;62.21
15817;BME280;8009;50.070;8.232;2023-05-07T00:03:38;99940.47;;;17.17;62.54
15817;BME280;8009;50.070;8.232;2023-05-07T00:06:09;99944.34;;;16.89;63.12
15817;BME280;8009;50.070;8.232;2023-05-07T00:08:38;99943.41;;;17.24;61.64
15817;BME280;8009;50.070;8.232;2023-05-07T00:11:06;99948.81;;;17.16;61.57
15817;BME280;8009;50.070;8.232;2023-05-07T00:13:34;99940.41;;;17.35;61.50
15817;BME280;8009;50.070;8.232;2023-05-07T00:16:03;99946.13;;;16.62;63.89
15817;BME280;8009;50.070;8.232;2023-05-07T00:18:32;99935.66;;;16.93;63.14
15817;BME280;8009;50.070;8.232;2023-05-07T00:21:00;99936.78;;;17.26;62.10
15817;BME280;8009;50.070;8.232;2023-05-07T00:23:31;99936.41;;;16.77;63.10
15817;BME280;8009;50.070;8.232;2023-05-07T00:25:59;99941.53;;;16.63;63.44
15817;BME280;8009;50.070;8.232;2023-05-07T00:28:27;99939.84;;;17.05;63.15
15817;BME280;8009;50.070;8.232;2023-05-07T00:30:56;99937.53;;;17.11;61.96
15817;BME280;8009;50.070;8.232;2023-05-07T00:33:24;99932.78;;;16.59;63.49
15817;BME280;8009;50.070;8.232;2023-05-07T00:35:52;99926.34;;;17.22;61.98
15817;BME280;8009;50.070;8.232;2023-05-07T00:38:22;99925.41;;;17.13;61.75
15817;BME280;8009;50.070;8.232;2023-05-07T00:40:53;99921.09;;;17.28;61.12
15817;BME280;8009;50.070;8.232;2023-05-07T00:43:21;99924.50;;;17.04;62.32
15817;BME280;8009;50.070;8.232;2023-05-07T00:45:49;99926.28;;;16.88;62.50
15817;BME280;8009;50.070;8.232;2023-05-07T00:48:18;99915.59;;;16.94;62.40
15817;BME280;8009;50.070;8.232;2023-05-07T00:50:47;99919.31;;;16.93;62.86
15817;BME280;8009;50.070;8.232;2023-05-07T00:53:15;99930.63;;;16.80;62.63
15817;BME280;8009;50.070;8.232;2023-05-07T00:55:43;99937.63;;;16.47;63.95
15817;BME280;8009;50.070;8.232;2023-05-07T00:58:14;99928.75;;;16.99;61.99
15817;BME280;8009;50.070;8.232;2023-05-07T01:00:43;99935.81;;;16.20;65.29
15817;BME280;8009;50.070;8.232;2023-05-07T01:03:11;99927.59;;;16.30;65.12
15817;BME280;8009;50.070;8.232;2023-05-07T01:05:40;99930.00;;;16.51;64.09
15817;BME280;8009;50.070;8.232;2023-05-07T01:08:10;99927.19;;;16.43;63.93
15817;BME280;8009;50.070;8.232;2023-05-07T01:10:38;99933.50;;;16.61;63.38
15817;BME280;8009;50.070;8.232;2023-05-07T01:13:08;99922.75;;;16.95;62.76
15817;BME280;8009;50.070;8.232;2023-05-07T01:15:39;99933.44;;;16.35;64.63
15817;BME280;8009;50.070;8.232;2023-05-07T01:18:08;99932.81;;;16.77;63.25
15817;BME280;8009;50.070;8.232;2023-05-07T01:20:36;99930.84;;;16.69;64.08
15817;BME280;8009;50.070;8.232;2023-05-07T01:23:08;99925.34;;;17.05;62.36
15817;BME280;8009;50.070;8.232;2023-05-07T01:25:38;99930.84;;;16.69;63.72
15817;BME280;8009;50.070;8.232;2023-05-07T01:28:07;99933.59;;;16.33;64.88
15817;BME280;8009;50.070;8.232;2023-05-07T01:30:40;99919.91;;;16.79;63.79
15817;BME280;8009;50.070;8.232;2023-05-07T01:33:13;99910.22;;;16.85;63.41
15817;BME280;8009;50.070;8.232;2023-05-07T01:35:45;99914.44;;;16.79;63.04
15817;BME280;8009;50.070;8.232;2023-05-07T01:38:18;99915.09;;;16.63;63.43
15817;BME280;8009;50.070;8.232;2023-05-07T01:40:47;99906.78;;;16.83;63.00
15817;BME280;8009;50.070;8.232;2023-05-07T01:43:15;99905.09;;;16.46;64.50
15817;BME280;8009;50.070;8.232;2023-05-07T01:45:44;99897.06;;;16.44;64.53
15817;BME280;8009;50.070;8.232;2023-05-07T01:48:15;99901.59;;;16.53;63.90
15817;BME280;8009;50.070;8.232;2023-05-07T01:50:44;99898.06;;;16.43;64.36
15817;BME280;8009;50.070;8.232;2023-05-07T01:53:12;99901.59;;;16.36;65.00
15817;BME280;8009;50.070;8.232;2023-05-07T01:55:43;99910.50;;;16.10;65.92
15817;BME280;8009;50.070;8.232;2023-05-07T01:58:11;99903.00;;;16.22;65.70
15817;BME280;8009;50.070;8.232;2023-05-07T02:00:40;99912.16;;;16.03;66.81
15817;BME280;8009;50.070;8.232;2023-05-07T02:03:08;99906.47;;;16.32;65.37
15817;BME280;8009;50.070;8.232;2023-05-07T02:05:37;99888.34;;;16.76;63.66
15817;BME280;8009;50.070;8.232;2023-05-07T02:08:05;99904.22;;;16.09;65.61
15817;BME280;8009;50.070;8.232;2023-05-07T02:10:33;99904.44;;;16.52;64.84
15817;BME280;8009;50.070;8.232;2023-05-07T02:13:04;99902.03;;;16.67;64.38
15817;BME280;8009;50.070;8.232;2023-05-07T02:15:33;99899.94;;;16.43;65.14
15817;BME280;8009;50.070;8.232;2023-05-07T02:18:03;99902.75;;;16.51;64.82
15817;BME280;8009;50.070;8.232;2023-05-07T02:20:32;99905.78;;;16.66;64.57
15817;BME280;8009;50.070;8.232;2023-05-07T02:23:00;99905.59;;;16.67;64.70
15817;BME280;8009;50.070;8.232;2023-05-07T02:25:28;99897.91;;;16.80;63.78
15817;BME280;8009;50.070;8.232;2023-05-07T02:27:57;99896.53;;;16.76;63.78
15817;BME280;8009;50.070;8.232;2023-05-07T02:30:28;99902.84;;;16.41;65.23
15817;BME280;8009;50.070;8.232;2023-05-07T02:32:56;99908.59;;;16.74;64.16
15817;BME280;8009;50.070;8.232;2023-05-07T02:35:25;99903.59;;;16.69;64.24
15817;BME280;8009;50.070;8.232;2023-05-07T02:37:53;99904.22;;;16.81;63.64
15817;BME280;8009;50.070;8.232;2023-05-07T02:40:22;99897.22;;;16.78;63.90
15817;BME280;8009;50.070;8.232;2023-05-07T02:42:50;99900.31;;;16.66;64.78
15817;BME280;8009;50.070;8.232;2023-05-07T02:45:19;99908.53;;;16.30;66.90
15817;BME280;8009;50.070;8.232;2023-05-07T02:47:49;99905.63;;;16.85;64.53
15817;BME280;8009;50.070;8.232;2023-05-07T02:50:18;99904.75;;;16.67;64.24
15817;BME280;8009;50.070;8.232;2023-05-07T02:52:46;99912.88;;;16.76;63.77
15817;BME280;8009;50.070;8.232;2023-05-07T02:55:14;99907.59;;;16.57;64.74
15817;BME280;8009;50.070;8.232;2023-05-07T02:57:43;99908.19;;;16.51;64.86
15817;BME280;8009;50.070;8.232;2023-05-07T03:00:13;99912.94;;;16.31;66.27
15817;BME280;8009;50.070;8.232;2023-05-07T03:02:42;99910.47;;;16.73;64.48
15817;BME280;8009;50.070;8.232;2023-05-07T03:05:13;99909.25;;;16.94;63.76
15817;BME280;8009;50.070;8.232;2023-05-07T03:07:41;99901.19;;;16.84;63.87
15817;BME280;8009;50.070;8.232;2023-05-07T03:10:11;99909.44;;;16.74;63.81
15817;BME280;8009;50.070;8.232;2023-05-07T03:12:40;99905.88;;;16.56;64.68
15817;BME280;8009;50.070;8.232;2023-05-07T03:15:09;99913.72;;;16.23;66.47
15817;BME280;8009;50.070;8.232;2023-05-07T03:17:38;99900.69;;;16.89;64.36
15817;BME280;8009;50.070;8.232;2023-05-07T03:20:08;99906.72;;;16.56;65.64
15817;BME280;8009;50.070;8.232;2023-05-07T03:22:39;99900.00;;;16.69;64.17
15817;BME280;8009;50.070;8.232;2023-05-07T03:25:08;99905.00;;;16.55;nan
15817;BME280;8009;50.070;8.232;2023-05-07T03:27:37;99894.28;;;16.98;63.59
15817;BME280;8009;50.070;8.232;2023-05-07T03:30:08;99887.88;;;17.07;63.35
15817;BME280;8009;50.070;8.232;2023-05-07T03:32:36;99888.50;;;16.57;65.01
15817;BME280;8009;50.070;8.232;2023-05-07T03:35:05;99884.47;;;16.79;63.78
15817;BME280;8009;50.070;8.232;2023-05-07T03:37:33;99883.91;;;17.01;63.70
15817;BME280;8009;50.070;8.232;2023-05-07T03:40:05;99879.75;;;16.71;64.72
15817;BME280;8009;50.070;8.232;2023-05-07T03:42:37;99888.69;;;16.99;62.88
15817;BME280;8009;50.070;8.232;2023-05-07T03:45:07;99883.78;;;16.67;64.60
15817;BME280;8009;50.070;8.232;2023-05-07T03:47:35;99892.63;;;16.61;64.67
15817;BME280;8009;50.070;8.232;2023-05-07T03:50:04;99884.31;;;17.07;63.14
15817;BME280;8009;50.070;8.232;2023-05-07T03:52:33;99894.25;;;16.54;65.37
15817;BME280;8009;50.070;8.232;2023-05-07T03:55:04;99898.16;;;16.16;66.35
15817;BME280;8009;50.070;8.232;2023-05-07T03:57:33;99889.34;;;16.40;65.06
15817;BME280;8009;50.070;8.232;2023-05-07T04:00:02;99892.25;;;16.56;64.86
15817;BME280;8009;50.070;8.232;2023-05-07T04:02:32;99896.91;;;16.81;64.63
15817;BME280;8009;50.070;8.232;2023-05-07T04:05:01;99900.69;;;16.71;63.59
15817;BME280;8009;50.070;8.232;2023-05-07T04:07:29;99905.09;;;16.64;64.44
15817;BME280;8009;50.070;8.232;2023-05-07T04:09:57;99908.50;;;16.66;65.68
15817;BME280;8009;50.070;8.232;2023-05-07T04:12:28;99907.66;;;16.83;64.53
15817;BME280;8009;50.070;8.232;2023-05-07T04:14:56;99911.00;;;16.95;64.18
15817;BME280;8009;50.070;8.232;2023-05-07T04:17:25;99914.94;;;17.00;63.34
15817;BME280;8009;50.070;8.232;2023-05-07T04:19:53;99915.91;;;16.91;63.95
15817;BME280;8009;50.070;8.232;2023-05-07T04:22:21;99913.72;;;16.59;65.00
15817;BME280;8009;50.070;8.232;2023-05-07T04:24:49;99919.44;;;16.84;64.24
15817;BME280;8009;50.070;8.232;2023-05-07T04:27:18;99927.44;;;16.85;64.53
15817;BME280;8009;50.070;8.232;2023-05-07T04:29:49;99924.81;;;16.75;65.21
15817;BME280;8009;50.070;8.232;2023-05-07T04:32:21;99928.94;;;16.79;64.80
15817;BME280;8009;50.070;8.232;2023-05-07T04:34:51;99930.91;;;16.60;65.47
15817;BME280;8009;50.070;8.232;2023-05-07T04:37:19;99936.25;;;16.61;64.44
15817;BME280;8009;50.070;8.232;2023-05-07T04:39:48;99942.13;;;16.03;66.84
15817;BME280;8009;50.070;8.232;2023-05-07T04:42:16;99929.31;;;16.49;65.02
15817;BME280;8009;50.070;8.232;2023-05-07T04:44:45;99935.31;;;16.52;65.41
15817;BME280;8009;50.070;8.232;2023-05-07T04:47:16;99927.28;;;16.69;64.06
15817;BME280;8009;50.070;8.232;2023-05-07T04:49:44;99923.53;;;16.88;64.11
15817;BME280;8009;50.070;8.232;2023-05-07T04:52:12;99924.69;;;16.67;65.04
15817;BME280;8009;50.070;8.232;2023-05-07T04:54:41;99931.47;;;16.63;65.67
15817;BME280;8009;50.070;8.232;2023-05-07T04:57:09;99937.22;;;16.24;67.06
15817;BME280;8009;50.070;8.232;2023-05-07T04:59:37;99940.03;;;16.50;66.03
15817;BME280;8009;50.070;8.232;2023-05-07T05:02:05;99940.59;;;16.72;64.75
15817;BME280;8009;50.070;8.232;2023-05-07T05:04:36;99941.78;;;16.87;64.67
15817;BME280;8009;50.070;8.232;2023-05-07T05:07:05;99935.06;;;16.99;64.41
15817;BME280;8009;50.070;8.232;2023-05-07T05:09:33;99945.44;;;16.78;64.79
15817;BME280;8009;50.070;8.232;2023-05-07T05:12:01;99944.09;;;17.00;64.13
15817;BME280;8009;50.070;8.232;2023-05-07T05:14:32;99954.13;;;17.17;63.05
15817;BME280;8009;50.070;8.232;2023-05-07T05:17:00;99943.50;;;17.14;63.77
15817;BME280;8009;50.070;8.232;2023-05-07T05:19:29;99944.06;;;17.18;64.95
15817;BME280;8009;50.070;8.232;2023-05-07T05:21:59;99949.38;;;17.27;64.45
15817;BME280;8009;50.070;8.232;2023-05-07T05:24:29;99947.72;;;17.35;62.60
15817;BME280;8009;50.070;8.232;2023-05-07T05:26:57;99955.88;;;17.26;65.26
15817;BME280;8009;50.070;8.232;2023-05-07T05:29:26;99951.84;;;17.39;65.08
15817;BME280;8009;50.070;8.232;2023-05-07T05:31:56;99951.44;;;17.25;63.81
15817;BME280;8009;50.070;8.232;2023-05-07T05:34:24;99958.59;;;17.26;61.75
15817;BME280;8009;50.070;8.232;2023-05-07T05:36:53;99961.50;;;17.25;60.64
15817;BME280;8009;50.070;8.232;2023-05-07T05:39:25;99968.28;;;17.47;60.54
15817;BME280;8009;50.070;8.232;2023-05-07T05:41:53;99967.59;;;17.45;58.96
15817;BME280;8009;50.070;8.232;2023-05-07T05:44:21;99965.78;;;17.80;59.22
15817;BME280;8009;50.070;8.232;2023-05-07T05:46:50;99965.31;;;17.66;59.99
15817;BME280;8009;50.070;8.232;2023-05-07T05:49:20;99965.69;;;17.71;57.46
15817;BME280;8009;50.070;8.232;2023-05-07T05:51:48;99959.31;;;17.63;57.23
15817;BME280;8009;50.070;8.232;2023-05-07T05:54:17;99953.53;;;17.66;58.04
15817;BME280;8009;50.070;8.232;2023-05-07T05:56:57;99956.75;;;17.87;57.53
15817;BME280;8009;50.070;8.232;2023-05-07T05:59:26;99957.75;;;17.52;57.88
15817;BME280;8009;50.070;8.232;2023-05-07T06:01:54;99949.22;;;17.55;57.64
15817;BME280;8009;50.070;8.232;2023-05-07T06:04:34;99956.75;;;17.61;58.94
15817;BME280;8009;50.070;8.232;2023-05-07T06:07:03;99954.34;;;17.84;58.90
15817;BME280;8009;50.070;8.232;2023-05-07T06:09:31;99958.69;;;17.69;57.89
15817;BME280;8009;50.070;8.232;2023-05-07T06:12:02;99954.41;;;18.00;58.41
15817;BME280;8009;50.070;8.232;2023-05-07T06:14:31;99959.03;;;18.00;57.57
15817;BME280;8009;50.070;8.232;2023-05-07T06:16:59;99952.72;;;18.08;56.56
15817;BME280;8009;50.070;8.232;2023-05-07T06:19:27;99958.19;;;18.08;56.65
15817;BME280;8009;50.070;8.232;2023-05-07T06:21:56;99958.44;;;18.31;54.85
15817;BME280;8009;50.070;8.232;2023-05-07T06:24:26;99958.44;;;18.31;55.14
15817;BME280;8009;50.070;8.232;2023-05-07T06:26:54;99966.81;;;18.37;55.43
15817;BME280;8009;50.070;8.232;2023-05-07T06:29:26;99962.00;;;18.23;55.26
15817;BME280;8009;50.070;8.232;2023-05-07T06:31:56;99958.75;;;18.27;55.90
15817;BME280;8009;50.070;8.232;2023-05-07T06:34:33;99966.16;;;18.43;55.71
15817;BME280;8009;50.070;8.232;2023-05-07T06:37:02;99957.81;;;18.69;55.06
15817;BME280;8009;50.070;8.232;2023-05-07T06:39:31;99969.16;;;18.74;53.88
15817;BME280;8009;50.070;8.232;2023-05-07T06:41:59;99959.06;;;18.75;55.25
15817;BME280;8009;50.070;8.232;2023-05-07T06:44:32;99963.97;;;18.63;55.56
15817;BME280;8009;50.070;8.232;2023-05-07T06:47:00;99973.16;;;18.46;54.88
15817;BME280;8009;50.070;8.232;2023-05-07T06:49:29;99975.03;;;18.45;53.62
15817;BME280;8009;50.070;8.232;2023-05-07T06:51:57;99974.06;;;18.55;54.09
15817;BME280;8009;50.070;8.232;2023-05-07T06:54:26;99971.66;;;18.51;53.37
15817;BME280;8009;50.070;8.232;2023-05-07T06:56:54;99976.06;;;18.44;52.63
15817;BME280;8009;50.070;8.232;2023-05-07T06:59:23;99979.34;;;18.56;52.36
15817;BME280;8009;50.070;8.232;2023-05-07T07:01:54;99980.19;;;18.57;52.97
15817;BME280;8009;50.070;8.232;2023-05-07T07:04:22;99971.69;;;18.92;52.88
15817;BME280;8009;50.070;8.232;2023-05-07T07:06:52;99983.00;;;18.81;53.32
15817;BME280;8009;50.070;8.232;2023-05-07T07:09:22;99977.03;;;18.86;53.53
15817;BME280;8009;50.070;8.232;2023-05-07T07:11:50;99981.66;;;18.85;53.31
15817;BME280;8009;50.070;8.232;2023-05-07T07:14:19;99985.38;;;18.76;53.06
15817;BME280;8009;50.070;8.232;2023-05-07T07:16:47;99988.81;;;18.94;54.04
15817;BME280;8009;50.070;8.232;2023-05-07T07:19:18;99993.59;;;18.76;53.33
15817;BME280;8009;50.070;8.232;2023-05-07T07:21:47;99978.53;;;18.80;52.92
15817;BME280;8009;50.070;8.232;2023-05-07T07:24:16;99984.38;;;18.93;53.35
15817;BME280;8009;50.070;8.232;2023-05-07T07:26:46;99978.38;;;19.06;53.13
15817;BME280;8009;50.070;8.232;2023-05-07T07:29:14;99983.53;;;18.93;53.22
15817;BME280;8009;50.070;8.232;2023-05-07T07:31:45;99980.78;;;19.09;53.73
15817;BME280;8009;50.070;8.232;2023-05-07T07:34:13;99982.66;;;18.92;54.07
15817;BME280;8009;50.070;8.232;2023-05-07T07:36:44;99982.31;;;18.95;53.31
15817;BME280;8009;50.070;8.232;2023-05-07T07:39:13;99982.50;;;19.02;53.01
15817;BME280;8009;50.070;8.232;2023-05-07T07:41:42;99988.31;;;18.91;53.23
15817;BME280;8009;50.070;8.232;2023-05-07T07:44:10;99994.25;;;18.70;53.80
15817;BME280;8009;50.070;8.232;2023-05-07T07:46:38;99988.41;;;18.57;54.26
15817;BME280;8009;50.070;8.232;2023-05-07T07:49:06;99985.38;;;18.76;53.66
15817;BME280;8009;50.070;8.232;2023-05-07T07:51:35;99987.97;;;18.78;53.32
15817;BME280;8009;50.070;8.232;2023-05-07T07:54:06;99994.78;;;18.73;53.64
15817;BME280;8009;50.070;8.232;2023-05-07T07:56:34;99989.66;;;18.95;53.13
15817;BME280;8009;50.070;8.232;2023-05-07T07:59:03;99990.69;;;19.10;54.20
15817;BME280;8009;50.070;8.232;2023-05-07T08:01:31;100000.47;;;18.96;53.04
15817;BME280;8009;50.070;8.232;2023-05-07T08:04:00;99995.84;;;19.05;53.12
15817;BME280;8009;50.070;8.232;2023-05-07T08:06:28;99994.81;;;18.90;53.19
15817;BME280;8009;50.070;8.232;2023-05-07T08:08:57;100002.50;;;18.94;52.80
15817;BME280;8009;50.070;8.232;2023-05-07T08:11:28;99991.03;;;19.15;52.98
15817;BME280;8009;50.070;8.232;2023-05-07T08:13:56;99994.63;;;18.99;53.08
15817;BME280;8009;50.070;8.232;2023-05-07T08:16:25;99992.25;;;18.96;54.01
15817;BME280;8009;50.070;8.232;2023-05-07T08:18:53;99989.66;;;19.11;53.40
15817;BME280;8009;50.070;8.232;2023-05-07T08:21:22;99990.69;;;19.18;53.47
15817;BME280;8009;50.070;8.232;2023-05-07T08:23:51;99999.25;;;19.23;53.21
15817;BME280;8009;50.070;8.232;2023-05-07T08:26:19;99989.97;;;19.41;53.94
15817;BME280;8009;50.070;8.232;2023-05-07T08:28:51;99994.75;;;19.55;53.15
15817;BME280;8009;50.070;8.232;2023-05-07T08:31:19;99991.84;;;19.57;53.05
15817;BME280;8009;50.070;8.232;2023-05-07T08:33:47;99989.94;;;19.57;52.25
15817;BME280;8009;50.070;8.232;2023-05-07T08:36:15;99998.03;;;19.67;51.86
15817;BME280;8009;50.070;8.232;2023-05-07T08:41:55;99988.53;;;19.94;53.01
15817;BME280;8009;50.070;8.232;2023-05-07T08:44:27;99983.09;;;20.17;51.07
15817;BME280;8009;50.070;8.232;2023-05-07T08:46:56;99989.03;;;20.29;51.47
15817;BME280;8009;50.070;8.232;2023-05-07T08:49:27;99993.94;;;20.10;51.73
15817;BME280;8009;50.070;8.232;2023-05-07T09:12:06;99988.28;;;21.20;48.98
15817;BME280;8009;50.070;8.232;2023-05-07T09:14:35;99994.56;;;21.06;49.98
15817;BME280;8009;50.070;8.232;2023-05-07T09:17:13;99989.13;;;21.44;50.46
15817;BME280;8009;50.070;8.232;2023-05-07T09:19:43;99986.75;;;21.55;48.30
15817;BME280;8009;50.070;8.232;2023-05-07T09:24:59;99989.19;;;21.35;49.35
15817;BME280;8009;50.070;8.232;2023-05-07T09:27:33;99983.91;;;21.63;48.30
15817;BME280;8009;50.070;8.232;2023-05-07T09:30:06;99985.56;;;21.87;48.58
15817;BME280;8009;50.070;8.232;2023-05-07T09:32:35;99974.94;;;21.99;48.47
15817;BME280;8009;50.070;8.232;2023-05-07T09:35:14;99989.44;;;22.08;47.24
15817;BME280;8009;50.070;8.232;2023-05-07T09:37:43;99992.50;;;21.98;47.59
15817;BME280;8009;50.070;8.232;2023-05-07T09:46:12;99988.69;;;21.84;47.71
15817;BME280;8009;50.070;8.232;2023-05-07T09:48:43;99995.34;;;21.75;48.40
15817;BME280;8009;50.070;8.232;2023-05-07T09:51:21;99991.63;;;22.27;46.56
15817;BME280;8009;50.070;8.232;2023-05-07T09:54:01;99987.47;;;21.87;47.83
15817;BME280;8009;50.070;8.232;2023-05-07T09:56:30;99986.16;;;21.83;47.36
15817;BME280;8009;50.070;8.232;2023-05-07T09:59:00;99987.16;;;21.97;48.07
15817;BME280;8009;50.070;8.232;2023-05-07T10:01:31;99986.97;;;21.69;48.55
15817;BME280;8009;50.070;8.232;2023-05-07T10:04:01;99984.50;;;21.74;48.50
15817;BME280;8009;50.070;8.232;2023-05-07T10:06:30;99980.72;;;22.04;49.84
15817;BME280;8009;50.070;8.232;2023-05-07T10:09:01;99966.91;;;22.49;47.20
15817;BME280;8009;50.070;8.232;2023-05-07T10:11:31;99972.63;;;22.69;45.77
15817;BME280;8009;50.070;8.232;2023-05-07T10:14:00;99969.44;;;22.86;45.90
15817;BME280;8009;50.070;8.232;2023-05-07T10:16:34;99964.00;;;23.15;45.73
15817;BME280;8009;50.070;8.232;2023-05-07T10:19:03;99964.38;;;23.05;45.56
15817;BME280;8009;50.070;8.232;2023-05-07T10:31:55;99972.34;;;22.12;46.47
15817;BME280;8009;50.070;8.232;2023-05-07T10:34:29;99971.03;;;22.08;48.52
15817;BME280;8009;50.070;8.232;2023-05-07T11:03:08;99968.13;;;22.82;46.42
15817;BME280;8009;50.070;8.232;2023-05-07T11:05:37;99967.59;;;22.72;46.04
15817;BME280;8009;50.070;8.232;2023-05-07T11:08:06;99961.88;;;22.74;45.28
15817;BME280;8009;50.070;8.232;2023-05-07T11:29:46;99968.59;;;21.84;47.95
15817;BME280;8009;50.070;8.232;2023-05-07T11:32:30;99960.88;;;22.09;46.88
15817;BME280;8009;50.070;8.232;2023-05-07T11:38:25;99959.50;;;22.49;45.67
15817;BME280;8009;50.070;8.232;2023-05-07T11:41:16;99948.47;;;22.28;45.74
15817;BME280;8009;50.070;8.232;2023-05-07T11:43:56;99949.03;;;22.23;46.82
15817;BME280;8009;50.070;8.232;2023-05-07T11:46:26;99945.41;;;22.37;47.05
15817;BME280;8009;50.070;8.232;2023-05-07T11:48:54;99946.53;;;22.43;47.93
15817;BME280;8009;50.070;8.232;2023-05-07T11:51:24;99944.78;;;22.57;45.68
15817;BME280;8009;50.070;8.232;2023-05-07T11:54:10;99946.69;;;22.78;47.57
15817;BME280;8009;50.070;8.232;2023-05-07T11:56:39;99943.09;;;22.56;46.51
15817;BME280;8009;50.070;8.232;2023-05-07T11:59:08;99946.09;;;22.61;47.39
15817;BME280;8009;50.070;8.232;2023-05-07T12:01:36;99935.59;;;22.50;46.68
15817;BME280;8009;50.070;8.232;2023-05-07T12:04:05;99937.06;;;22.31;46.35
15817;BME280;8009;50.070;8.232;2023-05-07T12:06:36;99931.22;;;22.77;46.13
15817;BME280;8009;50.070;8.232;2023-05-07T12:09:05;99941.53;;;22.68;47.97
15817;BME280;8009;50.070;8.232;2023-05-07T12:11:51;99937.31;;;22.72;45.86
15817;BME280;8009;50.070;8.232;2023-05-07T12:14:21;99944.00;;;22.63;45.89
15817;BME280;8009;50.070;8.232;2023-05-07T12:17:17;99935.03;;;22.76;45.59
15817;BME280;8009;50.070;8.232;2023-05-07T12:19:45;99938.69;;;23.04;44.83
15817;BME280;8009;50.070;8.232;2023-05-07T12:22:14;99939.34;;;22.85;44.88
15817;BME280;8009;50.070;8.232;2023-05-07T12:24:46;99936.53;;;23.21;44.24
15817;BME280;8009;50.070;8.232;2023-05-07T12:27:18;99929.00;;;22.87;44.30
15817;BME280;8009;50.070;8.232;2023-05-07T12:29:46;99927.94;;;22.88;45.70
15817;BME280;8009;50.070;8.232;2023-05-07T12:32:15;99925.75;;;22.98;44.30
15817;BME280;8009;50.070;8.232;2023-05-07T12:34:44;99922.84;;;23.06;45.43
15817;BME280;8009;50.070;8.232;2023-05-07T12:37:13;99922.69;;;23.43;44.98
15817;BME280;8009;50.070;8.232;2023-05-07T12:39:44;99932.38;;;23.32;44.85
15817;BME280;8009;50.070;8.232;2023-05-07T12:42:20;99930.19;;;23.27;44.52
15817;BME280;8009;50.070;8.232;2023-05-07T12:44:51;99936.34;;;22.80;45.71
15817;BME280;8009;50.070;8.232;2023-05-07T12:47:20;99925.38;;;23.08;44.16
15817;BME280;8009;50.070;8.232;2023-05-07T12:49:48;99921.06;;;23.20;45.15
15817;BME280;8009;50.070;8.232;2023-05-07T12:52:17;99934.00;;;21.89;46.74
15817;BME280;8009;50.070;8.232;2023-05-07T12:54:45;99935.88;;;22.04;45.95
15817;BME280;8009;50.070;8.232;2023-05-07T12:57:13;99928.06;;;22.58;46.73
15817;BME280;8009;50.070;8.232;2023-05-07T12:59:44;99930.47;;;22.10;46.39
15817;BME280;8009;50.070;8.232;2023-05-07T13:02:12;99934.19;;;21.88;46.69
15817;BME280;8009;50.070;8.232;2023-05-07T13:04:41;99923.56;;;22.14;46.57
15817;BME280;8009;50.070;8.232;2023-05-07T13:07:09;99922.97;;;22.04;46.34
15817;BME280;8009;50.070;8.232;2023-05-07T13:09:37;99931.44;;;21.88;46.08
15817;BME280;8009;50.070;8.232;2023-05-07T13:12:07;99921.97;;;21.90;45.42
15817;BME280;8009;50.070;8.232;2023-05-07T13:14:36;99917.91;;;21.42;47.04
15817;BME280;8009;50.070;8.232;2023-05-07T13:17:06;99913.16;;;21.95;45.86
15817;BME280;8009;50.070;8.232;2023-05-07T13:19:35;99917.31;;;22.06;45.58
15817;BME280;8009;50.070;8.232;2023-05-07T13:22:04;99904.41;;;22.43;45.14
15817;BME280;8009;50.070;8.232;2023-05-07T13:24:32;99902.78;;;22.70;44.92
15817;BME280;8009;50.070;8.232;2023-05-07T13:27:00;99899.56;;;22.66;44.96
15817;BME280;8009;50.070;8.232;2023-05-07T13:29:31;99889.88;;;23.20;43.01
15817;BME280;8009;50.070;8.232;2023-05-07T13:31:59;99900.56;;;22.58;44.33
15817;BME280;8009;50.070;8.232;2023-05-07T13:34:30;99882.47;;;22.92;43.14
15817;BME280;8009;50.070;8.232;2023-05-07T13:36:58;99885.88;;;23.22;43.26
15817;BME280;8009;50.070;8.232;2023-05-07T13:39:27;99866.22;;;22.97;44.66
15817;BME280;8009;50.070;8.232;2023-05-07T13:41:55;99884.06;;;23.01;44.25
15817;BME280;8009;50.070;8.232;2023-05-07T13:44:23;99876.91;;;22.43;44.47
15817;BME280;8009;50.070;8.232;2023-05-07T13:46:52;99863.56;;;22.89;44.22
15817;BME280;8009;50.070;8.232;2023-05-07T13:49:20;99867.22;;;23.18;44.19
15817;BME280;8009;50.070;8.232;2023-05-07T13:51:51;99875.63;;;22.88;44.56
15817;BME280;8009;50.070;8.232;2023-05-07T13:54:20;99860.72;;;22.97;43.53
15817;BME280;8009;50.070;8.232;2023-05-07T13:56:48;99867.13;;;23.32;43.38
15817;BME280;8009;50.070;8.232;2023-05-07T13:59:16;99861.81;;;23.03;43.59
15817;BME280;8009;50.070;8.232;2023-05-07T14:01:45;99867.81;;;22.63;43.22
15817;BME280;8009;50.070;8.232;2023-05-07T14:04:13;99864.88;;;23.15;42.65
15817;BME280;8009;50.070;8.232;2023-05-07T14:06:41;99871.22;;;23.15;42.75
15817;BME280;8009;50.070;8.232;2023-05-07T14:09:12;99866.00;;;23.27;41.71
15817;BME280;8009;50.070;8.232;2023-05-07T14:11:41;99871.59;;;23.40;42.89
15817;BME280;8009;50.070;8.232;2023-05-07T14:14:09;99865.38;;;23.25;42.31
15817;BME280;8009;50.070;8.232;2023-05-07T14:16:38;99865.69;;;22.66;43.57
15817;BME280;8009;50.070;8.232;2023-05-07T14:19:06;99869.25;;;22.59;43.79
15817;BME280;8009;50.070;8.232;2023-05-07T14:21:35;99868.25;;;22.46;43.95
15817;BME280;8009;50.070;8.232;2023-05-07T14:24:04;99866.81;;;22.71;43.62
15817;BME280;8009;50.070;8.232;2023-05-07T14:26:35;99866.00;;;22.77;42.35
15817;BME280;8009;50.070;8.232;2023-05-07T14:29:03;99874.03;;;22.29;43.59
15817;BME280;8009;50.070;8.232;2023-05-07T14:31:31;99868.66;;;22.06;43.80
15817;BME280;8009;50.070;8.232;2023-05-07T14:34:00;99858.97;;;22.47;43.29
15817;BME280;8009;50.070;8.232;2023-05-07T14:36:29;99855.28;;;22.39;43.31
15817;BME280;8009;50.070;8.232;2023-05-07T14:38:57;99852.69;;;22.53;43.17
15817;BME280;8009;50.070;8.232;2023-05-07T14:41:26;99864.47;;;22.47;43.07
15817;BME280;8009;50.070;8.232;2023-05-07T14:43:57;99859.94;;;22.39;43.00
15817;BME280;8009;50.070;8.232;2023-05-07T14:46:25;99866.19;;;22.48;42.85
15817;BME280;8009;50.070;8.232;2023-05-07T14:48:54;99864.38;;;22.61;43.00
15817;BME280;8009;50.070;8.232;2023-05-07T14:51:22;99864.00;;;22.86;43.34
15817;BME280;8009;50.070;8.232;2023-05-07T14:53:53;99858.75;;;22.91;42.83